sensor_id;sensor_type;location;lat;lon;timestamp;temperature;humidity
2729;DHT22;1372;47.956;7.830;2024-02-26T00:02:17;9.20;99.90
2729;DHT22;1372;47.956;7.830;2024-02-26T00:04:46;9.20;99.90
2729;DHT22;1372;47.956;7.830;2024-02-26T00:07:17;9.20;99.90
2729;DHT22;1372;47.956;7.830;2024-02-26T00:09:46;9.20;99.90
2729;DHT22;1372;47.956;7.830;2024-02-26T00:12:15;9.20;99.90
2729;DHT22;1372;47.956;7.830;2024-02-26T00:14:44;9.20;99.90
2729;DHT22;1372;47.956;7.830;2024-02-26T00:17:14;9.10;99.90
2729;DHT22;1372;47.956;7.830;2024-02-26T00:19:43;8.80;99.90
2729;DHT22;1372;47.956;7.830;2024-02-26T00:22:11;8.70;99.90
2729;DHT22;1372;47.956;7.830;2024-02-26T00:24:42;8.60;99.90
2729;DHT22;1372;47.956;7.830;2024-02-26T00:27:11;8.60;99.90
2729;DHT22;1372;47.956;7.830;2024-02-26T00:29:40;8.60;99.90
2729;DHT22;1372;47.956;7.830;2024-02-26T00:32:09;8.80;99.90
2729;DHT22;1372;47.956;7.830;2024-02-26T00:34:38;8.80;99.90
2729;DHT22;1372;47.956;7.830;2024-02-26T00:37:07;8.70;99.90
2729;DHT22;1372;47.956;7.830;2024-02-26T00:39:36;8.70;99.90
2729;DHT22;1372;47.956;7.830;2024-02-26T00:42:06;8.70;99.90
2729;DHT22;1372;47.956;7.830;2024-02-26T00:44:38;8.60;99.90
2729;DHT22;1372;47.956;7.830;2024-02-26T00:47:07;8.80;99.90
2729;DHT22;1372;47.956;7.830;2024-02-26T00:49:37;8.90;99.90
2729;DHT22;1372;47.956;7.830;2024-02-26T00:52:06;8.80;99.90
2729;DHT22;1372;47.956;7.830;2024-02-26T00:54:35;8.80;99.90
2729;DHT22;1372;47.956;7.830;2024-02-26T00:57:03;9.00;99.90
2729;DHT22;1372;47.956;7.830;2024-02-26T00:59:33;9.10;99.90
2729;DHT22;1372;47.956;7.830;2024-02-26T01:02:04;9.10;99.90
2729;DHT22;1372;47.956;7.830;2024-02-26T01:04:34;8.90;99.90
2729;DHT22;1372;47.956;7.830;2024-02-26T01:07:03;8.70;99.90
2729;DHT22;1372;47.956;7.830;2024-02-26T01:09:32;8.70;99.90
2729;DHT22;1372;47.956;7.830;2024-02-26T01:12:00;8.70;99.90
2729;DHT22;1372;47.956;7.830;2024-02-26T01:14:36;8.50;99.90
2729;DHT22;1372;47.956;7.830;2024-02-26T01:17:06;8.50;99.90
2729;DHT22;1372;47.956;7.830;2024-02-26T01:19:35;8.50;99.90
2729;DHT22;1372;47.956;7.830;2024-02-26T01:22:04;8.50;99.90
2729;DHT22;1372;47.956;7.830;2024-02-26T01:24:38;8.30;99.90
2729;DHT22;1372;47.956;7.830;2024-02-26T01:27:07;8.30;99.90
2729;DHT22;1372;47.956;7.830;2024-02-26T01:29:37;8.40;99.90
2729;DHT22;1372;47.956;7.830;2024-02-26T01:32:06;8.50;99.90
2729;DHT22;1372;47.956;7.830;2024-02-26T01:34:35;8.50;99.90
2729;DHT22;1372;47.956;7.830;2024-02-26T01:37:05;8.50;99.90
2729;DHT22;1372;47.956;7.830;2024-02-26T01:39:36;8.60;99.90
2729;DHT22;1372;47.956;7.830;2024-02-26T01:42:04;8.70;99.90
2729;DHT22;1372;47.956;7.830;2024-02-26T01:44:37;8.60;99.90
2729;DHT22;1372;47.956;7.830;2024-02-26T01:47:07;8.50;99.90
2729;DHT22;1372;47.956;7.830;2024-02-26T01:49:39;8.60;99.90
2729;DHT22;1372;47.956;7.830;2024-02-26T01:52:09;8.60;99.90
2729;DHT22;1372;47.956;7.830;2024-02-26T01:54:39;8.70;99.90
2729;DHT22;1372;47.956;7.830;2024-02-26T01:57:09;8.70;99.90
2729;DHT22;1372;47.956;7.830;2024-02-26T01:59:40;8.60;99.90
2729;DHT22;1372;47.956;7.830;2024-02-26T02:02:10;8.70;99.90
2729;DHT22;1372;47.956;7.830;2024-02-26T02:04:40;8.70;99.90
2729;DHT22;1372;47.956;7.830;2024-02-26T02:07:11;8.80;99.90
2729;DHT22;1372;47.956;7.830;2024-02-26T02:09:40;8.80;99.90
2729;DHT22;1372;47.956;7.830;2024-02-26T02:12:09;8.90;99.90
2729;DHT22;1372;47.956;7.830;2024-02-26T02:14:40;9.00;99.90
2729;DHT22;1372;47.956;7.830;2024-02-26T02:17:09;9.10;99.90
2729;DHT22;1372;47.956;7.830;2024-02-26T02:19:38;9.30;99.90
2729;DHT22;1372;47.956;7.830;2024-02-26T02:22:09;9.60;99.90
2729;DHT22;1372;47.956;7.830;2024-02-26T02:24:38;9.70;99.90
2729;DHT22;1372;47.956;7.830;2024-02-26T02:27:07;9.70;99.90
2729;DHT22;1372;47.956;7.830;2024-02-26T02:29:36;9.70;99.90
2729;DHT22;1372;47.956;7.830;2024-02-26T02:32:08;9.70;99.90
2729;DHT22;1372;47.956;7.830;2024-02-26T02:34:37;9.50;99.90
2729;DHT22;1372;47.956;7.830;2024-02-26T02:37:05;9.50;99.90
2729;DHT22;1372;47.956;7.830;2024-02-26T02:39:36;9.40;99.90
2729;DHT22;1372;47.956;7.830;2024-02-26T02:42:07;9.10;99.90
2729;DHT22;1372;47.956;7.830;2024-02-26T02:44:36;8.90;99.90
2729;DHT22;1372;47.956;7.830;2024-02-26T02:47:05;8.90;99.90
2729;DHT22;1372;47.956;7.830;2024-02-26T02:49:34;8.80;99.90
2729;DHT22;1372;47.956;7.830;2024-02-26T02:52:03;8.70;99.90
2729;DHT22;1372;47.956;7.830;2024-02-26T02:54:32;8.60;99.90
2729;DHT22;1372;47.956;7.830;2024-02-26T02:57:03;8.50;99.90
2729;DHT22;1372;47.956;7.830;2024-02-26T02:59:34;8.40;99.90
2729;DHT22;1372;47.956;7.830;2024-02-26T03:02:04;8.30;99.90
2729;DHT22;1372;47.956;7.830;2024-02-26T03:04:33;8.40;99.90
2729;DHT22;1372;47.956;7.830;2024-02-26T03:07:03;8.30;99.90
2729;DHT22;1372;47.956;7.830;2024-02-26T03:09:35;8.20;99.90
2729;DHT22;1372;47.956;7.830;2024-02-26T03:12:05;8.20;99.90
2729;DHT22;1372;47.956;7.830;2024-02-26T03:14:34;8.10;99.90
2729;DHT22;1372;47.956;7.830;2024-02-26T03:17:05;8.20;99.90
2729;DHT22;1372;47.956;7.830;2024-02-26T03:19:37;8.20;99.90
2729;DHT22;1372;47.956;7.830;2024-02-26T03:22:09;8.20;99.90
2729;DHT22;1372;47.956;7.830;2024-02-26T03:24:38;8.20;99.90
2729;DHT22;1372;47.956;7.830;2024-02-26T03:27:08;8.10;99.90
2729;DHT22;1372;47.956;7.830;2024-02-26T03:29:37;8.00;99.90
2729;DHT22;1372;47.956;7.830;2024-02-26T03:32:07;8.10;99.90
2729;DHT22;1372;47.956;7.830;2024-02-26T03:34:36;8.10;99.90
2729;DHT22;1372;47.956;7.830;2024-02-26T03:37:06;8.10;99.90
2729;DHT22;1372;47.956;7.830;2024-02-26T03:39:37;8.10;99.90
2729;DHT22;1372;47.956;7.830;2024-02-26T03:42:07;8.20;99.90
2729;DHT22;1372;47.956;7.830;2024-02-26T03:44:36;8.10;99.90
2729;DHT22;1372;47.956;7.830;2024-02-26T03:47:05;8.10;99.90
2729;DHT22;1372;47.956;7.830;2024-02-26T03:49:34;8.00;99.90
2729;DHT22;1372;47.956;7.830;2024-02-26T03:52:03;8.10;99.90
2729;DHT22;1372;47.956;7.830;2024-02-26T03:54:32;8.00;99.90
2729;DHT22;1372;47.956;7.830;2024-02-26T03:57:04;8.00;99.90
2729;DHT22;1372;47.956;7.830;2024-02-26T03:59:36;8.00;99.90
2729;DHT22;1372;47.956;7.830;2024-02-26T04:02:05;8.00;99.90
2729;DHT22;1372;47.956;7.830;2024-02-26T04:04:36;8.00;99.90
2729;DHT22;1372;47.956;7.830;2024-02-26T04:07:05;8.10;99.90
2729;DHT22;1372;47.956;7.830;2024-02-26T04:09:34;8.00;99.90
2729;DHT22;1372;47.956;7.830;2024-02-26T04:12:06;8.10;99.90
2729;DHT22;1372;47.956;7.830;2024-02-26T04:14:37;8.10;99.90
2729;DHT22;1372;47.956;7.830;2024-02-26T04:17:06;8.10;99.90
2729;DHT22;1372;47.956;7.830;2024-02-26T04:19:35;8.10;99.90
2729;DHT22;1372;47.956;7.830;2024-02-26T04:22:06;8.00;99.90
2729;DHT22;1372;47.956;7.830;2024-02-26T04:24:36;8.00;99.90
2729;DHT22;1372;47.956;7.830;2024-02-26T04:27:05;7.90;99.90
2729;DHT22;1372;47.956;7.830;2024-02-26T04:29:33;8.00;99.90
2729;DHT22;1372;47.956;7.830;2024-02-26T04:32:04;8.00;99.90
2729;DHT22;1372;47.956;7.830;2024-02-26T04:34:33;7.80;99.90
2729;DHT22;1372;47.956;7.830;2024-02-26T04:37:03;7.80;99.90
2729;DHT22;1372;47.956;7.830;2024-02-26T04:39:31;7.80;99.90
2729;DHT22;1372;47.956;7.830;2024-02-26T04:42:00;7.70;99.90
2729;DHT22;1372;47.956;7.830;2024-02-26T04:44:31;7.60;99.90
2729;DHT22;1372;47.956;7.830;2024-02-26T04:46:59;7.60;99.90
2729;DHT22;1372;47.956;7.830;2024-02-26T04:49:30;7.50;99.90
2729;DHT22;1372;47.956;7.830;2024-02-26T04:51:59;7.50;99.90
2729;DHT22;1372;47.956;7.830;2024-02-26T04:54:27;7.50;99.90
2729;DHT22;1372;47.956;7.830;2024-02-26T04:56:56;7.60;99.90
2729;DHT22;1372;47.956;7.830;2024-02-26T04:59:25;7.60;99.90
2729;DHT22;1372;47.956;7.830;2024-02-26T05:01:54;7.60;99.90
2729;DHT22;1372;47.956;7.830;2024-02-26T05:04:23;7.70;99.90
2729;DHT22;1372;47.956;7.830;2024-02-26T05:06:54;7.70;99.90
2729;DHT22;1372;47.956;7.830;2024-02-26T05:09:22;7.70;99.90
2729;DHT22;1372;47.956;7.830;2024-02-26T05:11:54;7.70;99.90
2729;DHT22;1372;47.956;7.830;2024-02-26T05:14:25;7.60;99.90
2729;DHT22;1372;47.956;7.830;2024-02-26T05:16:54;7.60;99.90
2729;DHT22;1372;47.956;7.830;2024-02-26T05:19:24;7.60;99.90
2729;DHT22;1372;47.956;7.830;2024-02-26T05:21:55;7.70;99.90
2729;DHT22;1372;47.956;7.830;2024-02-26T05:24:24;7.50;99.90
2729;DHT22;1372;47.956;7.830;2024-02-26T05:26:53;7.40;99.90
2729;DHT22;1372;47.956;7.830;2024-02-26T05:29:23;7.40;99.90
2729;DHT22;1372;47.956;7.830;2024-02-26T05:31:51;7.50;99.90
2729;DHT22;1372;47.956;7.830;2024-02-26T05:34:21;7.40;99.90
2729;DHT22;1372;47.956;7.830;2024-02-26T05:36:50;7.40;99.90
2729;DHT22;1372;47.956;7.830;2024-02-26T05:39:21;7.50;99.90
2729;DHT22;1372;47.956;7.830;2024-02-26T05:41:52;7.60;99.90
2729;DHT22;1372;47.956;7.830;2024-02-26T05:44:22;7.60;99.90
2729;DHT22;1372;47.956;7.830;2024-02-26T05:46:51;7.50;99.90
2729;DHT22;1372;47.956;7.830;2024-02-26T05:49:21;7.50;99.90
2729;DHT22;1372;47.956;7.830;2024-02-26T05:51:50;7.60;99.90
2729;DHT22;1372;47.956;7.830;2024-02-26T05:54:20;7.60;99.90
2729;DHT22;1372;47.956;7.830;2024-02-26T05:56:52;7.50;99.90
2729;DHT22;1372;47.956;7.830;2024-02-26T05:59:27;7.50;99.90
2729;DHT22;1372;47.956;7.830;2024-02-26T06:01:56;7.50;99.90
2729;DHT22;1372;47.956;7.830;2024-02-26T06:04:24;7.40;99.90
2729;DHT22;1372;47.956;7.830;2024-02-26T06:06:53;7.40;99.90
2729;DHT22;1372;47.956;7.830;2024-02-26T06:09:26;7.40;99.90
2729;DHT22;1372;47.956;7.830;2024-02-26T06:11:55;7.50;99.90
2729;DHT22;1372;47.956;7.830;2024-02-26T06:14:24;7.50;99.90
2729;DHT22;1372;47.956;7.830;2024-02-26T06:16:53;7.60;99.90
2729;DHT22;1372;47.956;7.830;2024-02-26T06:19:22;7.50;99.90
2729;DHT22;1372;47.956;7.830;2024-02-26T06:21:51;7.50;99.90
2729;DHT22;1372;47.956;7.830;2024-02-26T06:24:23;7.60;99.90
2729;DHT22;1372;47.956;7.830;2024-02-26T06:26:55;7.60;99.90
2729;DHT22;1372;47.956;7.830;2024-02-26T06:29:24;7.50;99.90
2729;DHT22;1372;47.956;7.830;2024-02-26T06:31:53;7.50;99.90
2729;DHT22;1372;47.956;7.830;2024-02-26T06:34:25;7.50;99.90
2729;DHT22;1372;47.956;7.830;2024-02-26T06:36:54;7.50;99.90
2729;DHT22;1372;47.956;7.830;2024-02-26T06:39:23;7.60;99.90
2729;DHT22;1372;47.956;7.830;2024-02-26T06:41:54;7.50;99.90
2729;DHT22;1372;47.956;7.830;2024-02-26T06:44:28;7.60;99.90
2729;DHT22;1372;47.956;7.830;2024-02-26T06:46:59;7.50;99.90
2729;DHT22;1372;47.956;7.830;2024-02-26T06:49:29;7.50;99.90
2729;DHT22;1372;47.956;7.830;2024-02-26T06:51:58;7.60;99.90
2729;DHT22;1372;47.956;7.830;2024-02-26T06:54:28;7.70;99.90
2729;DHT22;1372;47.956;7.830;2024-02-26T06:57:00;7.70;99.90
2729;DHT22;1372;47.956;7.830;2024-02-26T06:59:32;7.70;99.90
2729;DHT22;1372;47.956;7.830;2024-02-26T07:02:01;7.70;99.90
2729;DHT22;1372;47.956;7.830;2024-02-26T07:04:33;7.70;99.90
2729;DHT22;1372;47.956;7.830;2024-02-26T07:07:02;7.70;99.90
2729;DHT22;1372;47.956;7.830;2024-02-26T07:09:31;7.70;99.90
2729;DHT22;1372;47.956;7.830;2024-02-26T07:12:02;7.60;99.90
2729;DHT22;1372;47.956;7.830;2024-02-26T07:14:31;7.60;99.90
2729;DHT22;1372;47.956;7.830;2024-02-26T07:17:01;7.60;99.90
2729;DHT22;1372;47.956;7.830;2024-02-26T07:19:29;7.60;99.90
2729;DHT22;1372;47.956;7.830;2024-02-26T07:21:59;7.70;99.90
2729;DHT22;1372;47.956;7.830;2024-02-26T07:24:29;7.90;99.90
2729;DHT22;1372;47.956;7.830;2024-02-26T07:27:00;7.90;99.90
2729;DHT22;1372;47.956;7.830;2024-02-26T07:29:29;7.90;99.90
2729;DHT22;1372;47.956;7.830;2024-02-26T07:31:58;7.90;99.90
2729;DHT22;1372;47.956;7.830;2024-02-26T07:34:27;7.90;99.90
2729;DHT22;1372;47.956;7.830;2024-02-26T07:36:57;7.90;99.90
2729;DHT22;1372;47.956;7.830;2024-02-26T07:39:26;7.90;99.90
2729;DHT22;1372;47.956;7.830;2024-02-26T07:41:55;8.00;99.90
2729;DHT22;1372;47.956;7.830;2024-02-26T07:44:25;8.00;99.90
2729;DHT22;1372;47.956;7.830;2024-02-26T07:46:56;8.10;99.90
2729;DHT22;1372;47.956;7.830;2024-02-26T07:49:28;8.10;99.90
2729;DHT22;1372;47.956;7.830;2024-02-26T07:51:57;8.30;99.90
2729;DHT22;1372;47.956;7.830;2024-02-26T07:54:26;8.40;99.90
2729;DHT22;1372;47.956;7.830;2024-02-26T07:56:55;8.40;99.90
2729;DHT22;1372;47.956;7.830;2024-02-26T07:59:25;8.60;99.90
2729;DHT22;1372;47.956;7.830;2024-02-26T08:01:54;8.60;99.90
2729;DHT22;1372;47.956;7.830;2024-02-26T08:04:25;8.70;99.90
2729;DHT22;1372;47.956;7.830;2024-02-26T08:06:56;8.70;99.90
2729;DHT22;1372;47.956;7.830;2024-02-26T08:09:25;8.70;99.90
2729;DHT22;1372;47.956;7.830;2024-02-26T08:11:54;8.80;99.90
2729;DHT22;1372;47.956;7.830;2024-02-26T08:14:25;8.80;99.90
2729;DHT22;1372;47.956;7.830;2024-02-26T08:16:55;8.80;99.90
2729;DHT22;1372;47.956;7.830;2024-02-26T08:19:25;8.80;99.90
2729;DHT22;1372;47.956;7.830;2024-02-26T08:21:54;8.90;99.90
2729;DHT22;1372;47.956;7.830;2024-02-26T08:24:23;9.00;99.90
2729;DHT22;1372;47.956;7.830;2024-02-26T08:26:52;9.00;99.90
2729;DHT22;1372;47.956;7.830;2024-02-26T08:29:21;9.00;99.90
2729;DHT22;1372;47.956;7.830;2024-02-26T08:31:52;9.00;99.90
2729;DHT22;1372;47.956;7.830;2024-02-26T08:34:21;9.10;99.90
2729;DHT22;1372;47.956;7.830;2024-02-26T08:36:50;9.10;99.90
2729;DHT22;1372;47.956;7.830;2024-02-26T08:39:19;9.20;99.90
2729;DHT22;1372;47.956;7.830;2024-02-26T08:41:49;9.30;99.90
2729;DHT22;1372;47.956;7.830;2024-02-26T08:44:18;9.40;99.90
2729;DHT22;1372;47.956;7.830;2024-02-26T08:46:47;9.50;99.90
2729;DHT22;1372;47.956;7.830;2024-02-26T08:49:20;9.70;99.90
2729;DHT22;1372;47.956;7.830;2024-02-26T08:51:51;9.90;99.90
2729;DHT22;1372;47.956;7.830;2024-02-26T08:54:20;10.10;99.90
2729;DHT22;1372;47.956;7.830;2024-02-26T08:56:51;10.20;99.90
2729;DHT22;1372;47.956;7.830;2024-02-26T08:59:20;10.00;99.90
2729;DHT22;1372;47.956;7.830;2024-02-26T09:01:50;10.00;99.90
2729;DHT22;1372;47.956;7.830;2024-02-26T09:04:21;9.90;99.90
2729;DHT22;1372;47.956;7.830;2024-02-26T09:06:50;9.80;99.90
2729;DHT22;1372;47.956;7.830;2024-02-26T09:09:19;9.70;99.90
2729;DHT22;1372;47.956;7.830;2024-02-26T09:11:51;9.70;99.90
2729;DHT22;1372;47.956;7.830;2024-02-26T09:14:22;9.50;99.90
2729;DHT22;1372;47.956;7.830;2024-02-26T09:16:53;9.50;99.90
2729;DHT22;1372;47.956;7.830;2024-02-26T09:19:24;9.40;99.90
2729;DHT22;1372;47.956;7.830;2024-02-26T09:21:55;9.50;99.90
2729;DHT22;1372;47.956;7.830;2024-02-26T09:24:27;9.60;99.90
2729;DHT22;1372;47.956;7.830;2024-02-26T09:26:57;9.70;99.90
2729;DHT22;1372;47.956;7.830;2024-02-26T09:29:26;9.70;99.90
2729;DHT22;1372;47.956;7.830;2024-02-26T09:31:57;9.70;99.90
2729;DHT22;1372;47.956;7.830;2024-02-26T09:34:27;9.80;99.90
2729;DHT22;1372;47.956;7.830;2024-02-26T09:36:59;9.90;99.90
2729;DHT22;1372;47.956;7.830;2024-02-26T09:39:31;9.80;99.90
2729;DHT22;1372;47.956;7.830;2024-02-26T09:42:03;9.80;99.90
2729;DHT22;1372;47.956;7.830;2024-02-26T09:44:36;9.80;99.90
2729;DHT22;1372;47.956;7.830;2024-02-26T09:47:12;9.80;99.90
2729;DHT22;1372;47.956;7.830;2024-02-26T09:49:46;9.90;99.90
2729;DHT22;1372;47.956;7.830;2024-02-26T09:52:17;10.00;99.90
2729;DHT22;1372;47.956;7.830;2024-02-26T09:54:48;10.00;99.90
2729;DHT22;1372;47.956;7.830;2024-02-26T09:57:16;10.10;99.90
2729;DHT22;1372;47.956;7.830;2024-02-26T09:59:49;10.00;99.90
2729;DHT22;1372;47.956;7.830;2024-02-26T10:02:22;10.00;99.90
2729;DHT22;1372;47.956;7.830;2024-02-26T10:04:54;10.10;99.90
2729;DHT22;1372;47.956;7.830;2024-02-26T10:07:28;10.20;99.90
2729;DHT22;1372;47.956;7.830;2024-02-26T10:09:59;10.30;99.90
2729;DHT22;1372;47.956;7.830;2024-02-26T10:12:28;10.40;99.90
2729;DHT22;1372;47.956;7.830;2024-02-26T10:14:59;10.50;99.90
2729;DHT22;1372;47.956;7.830;2024-02-26T10:17:28;10.60;99.90
2729;DHT22;1372;47.956;7.830;2024-02-26T10:20:11;10.70;99.90
2729;DHT22;1372;47.956;7.830;2024-02-26T10:22:42;10.90;99.90
2729;DHT22;1372;47.956;7.830;2024-02-26T10:25:11;11.00;99.90
2729;DHT22;1372;47.956;7.830;2024-02-26T10:27:40;10.90;99.90
2729;DHT22;1372;47.956;7.830;2024-02-26T10:30:19;10.90;99.90
2729;DHT22;1372;47.956;7.830;2024-02-26T10:32:49;10.90;99.90
2729;DHT22;1372;47.956;7.830;2024-02-26T10:35:20;11.00;99.90
2729;DHT22;1372;47.956;7.830;2024-02-26T10:37:52;11.00;99.90
2729;DHT22;1372;47.956;7.830;2024-02-26T10:40:22;11.00;99.90
2729;DHT22;1372;47.956;7.830;2024-02-26T10:42:51;10.90;99.90
2729;DHT22;1372;47.956;7.830;2024-02-26T10:45:20;10.90;99.90
2729;DHT22;1372;47.956;7.830;2024-02-26T10:47:50;11.00;99.90
2729;DHT22;1372;47.956;7.830;2024-02-26T10:50:21;11.00;99.90
2729;DHT22;1372;47.956;7.830;2024-02-26T10:52:54;11.00;99.90
2729;DHT22;1372;47.956;7.830;2024-02-26T10:55:24;11.00;99.90
2729;DHT22;1372;47.956;7.830;2024-02-26T10:57:53;11.00;99.90
2729;DHT22;1372;47.956;7.830;2024-02-26T11:00:23;11.00;99.90
2729;DHT22;1372;47.956;7.830;2024-02-26T11:02:52;11.20;99.90
2729;DHT22;1372;47.956;7.830;2024-02-26T11:05:23;11.20;99.90
2729;DHT22;1372;47.956;7.830;2024-02-26T11:07:53;11.30;99.90
2729;DHT22;1372;47.956;7.830;2024-02-26T11:10:23;11.30;99.90
2729;DHT22;1372;47.956;7.830;2024-02-26T11:12:54;11.40;99.90
2729;DHT22;1372;47.956;7.830;2024-02-26T11:15:24;11.50;99.90
2729;DHT22;1372;47.956;7.830;2024-02-26T11:17:55;11.50;99.90
2729;DHT22;1372;47.956;7.830;2024-02-26T11:20:28;11.60;99.90
2729;DHT22;1372;47.956;7.830;2024-02-26T11:22:58;11.70;99.90
2729;DHT22;1372;47.956;7.830;2024-02-26T11:25:28;11.80;99.90
2729;DHT22;1372;47.956;7.830;2024-02-26T11:28:02;11.80;99.90
2729;DHT22;1372;47.956;7.830;2024-02-26T11:30:35;12.00;99.90
2729;DHT22;1372;47.956;7.830;2024-02-26T11:33:08;12.10;99.90
2729;DHT22;1372;47.956;7.830;2024-02-26T11:35:41;12.20;99.90
2729;DHT22;1372;47.956;7.830;2024-02-26T11:38:17;12.40;99.90
2729;DHT22;1372;47.956;7.830;2024-02-26T11:40:51;12.40;99.90
2729;DHT22;1372;47.956;7.830;2024-02-26T11:43:23;12.40;99.90
2729;DHT22;1372;47.956;7.830;2024-02-26T11:46:27;12.40;99.90
2729;DHT22;1372;47.956;7.830;2024-02-26T11:48:59;12.60;99.90
2729;DHT22;1372;47.956;7.830;2024-02-26T11:51:34;12.60;99.90
2729;DHT22;1372;47.956;7.830;2024-02-26T11:54:03;12.70;99.90
2729;DHT22;1372;47.956;7.830;2024-02-26T11:56:33;12.70;99.90
2729;DHT22;1372;47.956;7.830;2024-02-26T11:59:09;12.60;99.90
2729;DHT22;1372;47.956;7.830;2024-02-26T12:01:46;12.60;99.90
2729;DHT22;1372;47.956;7.830;2024-02-26T12:04:18;12.70;99.90
2729;DHT22;1372;47.956;7.830;2024-02-26T12:06:52;12.70;99.90
2729;DHT22;1372;47.956;7.830;2024-02-26T12:09:31;12.70;99.90
2729;DHT22;1372;47.956;7.830;2024-02-26T12:12:02;12.80;99.90
2729;DHT22;1372;47.956;7.830;2024-02-26T12:14:38;12.70;99.90
2729;DHT22;1372;47.956;7.830;2024-02-26T12:17:19;12.90;99.90
2729;DHT22;1372;47.956;7.830;2024-02-26T12:19:48;12.90;99.90
2729;DHT22;1372;47.956;7.830;2024-02-26T12:22:19;12.80;99.90
2729;DHT22;1372;47.956;7.830;2024-02-26T12:24:58;12.80;99.90
2729;DHT22;1372;47.956;7.830;2024-02-26T12:27:28;12.70;99.90
2729;DHT22;1372;47.956;7.830;2024-02-26T12:30:00;12.80;99.90
2729;DHT22;1372;47.956;7.830;2024-02-26T12:32:30;12.80;99.90
2729;DHT22;1372;47.956;7.830;2024-02-26T12:34:59;12.80;99.90
2729;DHT22;1372;47.956;7.830;2024-02-26T12:37:30;12.70;99.90
2729;DHT22;1372;47.956;7.830;2024-02-26T12:40:01;12.80;99.90
2729;DHT22;1372;47.956;7.830;2024-02-26T12:42:31;12.90;99.90
2729;DHT22;1372;47.956;7.830;2024-02-26T12:45:07;12.90;99.90
2729;DHT22;1372;47.956;7.830;2024-02-26T12:47:38;12.70;99.90
2729;DHT22;1372;47.956;7.830;2024-02-26T12:50:08;12.70;99.90
2729;DHT22;1372;47.956;7.830;2024-02-26T12:52:42;12.90;99.90
2729;DHT22;1372;47.956;7.830;2024-02-26T12:55:14;13.00;99.90
2729;DHT22;1372;47.956;7.830;2024-02-26T12:57:44;13.10;99.90
2729;DHT22;1372;47.956;7.830;2024-02-26T13:00:16;13.10;99.90
2729;DHT22;1372;47.956;7.830;2024-02-26T13:02:46;13.10;99.90
2729;DHT22;1372;47.956;7.830;2024-02-26T13:05:17;13.20;99.90
2729;DHT22;1372;47.956;7.830;2024-02-26T13:07:51;13.20;99.90
2729;DHT22;1372;47.956;7.830;2024-02-26T13:10:20;13.30;99.90
2729;DHT22;1372;47.956;7.830;2024-02-26T13:12:50;13.30;99.90
2729;DHT22;1372;47.956;7.830;2024-02-26T13:15:20;13.10;99.90
2729;DHT22;1372;47.956;7.830;2024-02-26T13:17:52;13.10;99.90
2729;DHT22;1372;47.956;7.830;2024-02-26T13:20:27;13.10;99.90
2729;DHT22;1372;47.956;7.830;2024-02-26T13:23:02;13.20;99.90
2729;DHT22;1372;47.956;7.830;2024-02-26T13:25:32;13.20;99.90
2729;DHT22;1372;47.956;7.830;2024-02-26T13:28:09;13.30;99.90
2729;DHT22;1372;47.956;7.830;2024-02-26T13:30:50;13.30;99.90
2729;DHT22;1372;47.956;7.830;2024-02-26T13:33:21;13.30;99.90
2729;DHT22;1372;47.956;7.830;2024-02-26T13:35:51;13.40;99.90
2729;DHT22;1372;47.956;7.830;2024-02-26T13:38:22;13.50;99.90
2729;DHT22;1372;47.956;7.830;2024-02-26T13:40:51;13.60;99.90
2729;DHT22;1372;47.956;7.830;2024-02-26T13:43:20;13.60;99.90
2729;DHT22;1372;47.956;7.830;2024-02-26T13:45:50;13.70;99.90
2729;DHT22;1372;47.956;7.830;2024-02-26T13:48:19;13.60;99.90
2729;DHT22;1372;47.956;7.830;2024-02-26T13:50:50;13.50;99.90
2729;DHT22;1372;47.956;7.830;2024-02-26T13:53:19;13.40;99.90
2729;DHT22;1372;47.956;7.830;2024-02-26T13:55:52;13.50;99.90
2729;DHT22;1372;47.956;7.830;2024-02-26T13:58:21;13.60;99.90
2729;DHT22;1372;47.956;7.830;2024-02-26T14:00:51;13.80;99.90
2729;DHT22;1372;47.956;7.830;2024-02-26T14:03:20;13.80;99.90
2729;DHT22;1372;47.956;7.830;2024-02-26T14:05:49;13.80;99.90
2729;DHT22;1372;47.956;7.830;2024-02-26T14:08:18;13.90;99.90
2729;DHT22;1372;47.956;7.830;2024-02-26T14:10:47;14.00;99.90
2729;DHT22;1372;47.956;7.830;2024-02-26T14:13:18;14.10;99.90
2729;DHT22;1372;47.956;7.830;2024-02-26T14:15:47;14.10;99.90
2729;DHT22;1372;47.956;7.830;2024-02-26T14:18:16;14.10;99.90
2729;DHT22;1372;47.956;7.830;2024-02-26T14:20:45;14.10;99.90
2729;DHT22;1372;47.956;7.830;2024-02-26T14:23:14;14.10;99.90
2729;DHT22;1372;47.956;7.830;2024-02-26T14:25:43;14.00;99.90
2729;DHT22;1372;47.956;7.830;2024-02-26T14:28:13;14.20;99.90
2729;DHT22;1372;47.956;7.830;2024-02-26T14:30:47;14.30;99.90
2729;DHT22;1372;47.956;7.830;2024-02-26T14:33:16;14.30;99.90
2729;DHT22;1372;47.956;7.830;2024-02-26T14:35:45;14.30;99.90
2729;DHT22;1372;47.956;7.830;2024-02-26T14:38:14;14.20;99.90
2729;DHT22;1372;47.956;7.830;2024-02-26T14:40:43;14.20;99.90
2729;DHT22;1372;47.956;7.830;2024-02-26T14:43:13;14.10;99.90
2729;DHT22;1372;47.956;7.830;2024-02-26T14:45:42;14.10;99.90
2729;DHT22;1372;47.956;7.830;2024-02-26T14:48:12;14.00;99.90
2729;DHT22;1372;47.956;7.830;2024-02-26T14:50:41;13.90;99.90
2729;DHT22;1372;47.956;7.830;2024-02-26T14:53:10;13.90;99.90
2729;DHT22;1372;47.956;7.830;2024-02-26T14:55:39;13.80;99.90
2729;DHT22;1372;47.956;7.830;2024-02-26T14:58:08;13.70;99.90
2729;DHT22;1372;47.956;7.830;2024-02-26T15:00:38;13.80;99.90
2729;DHT22;1372;47.956;7.830;2024-02-26T15:03:08;13.80;99.90
2729;DHT22;1372;47.956;7.830;2024-02-26T15:05:42;13.90;99.90
2729;DHT22;1372;47.956;7.830;2024-02-26T15:08:13;13.90;99.90
2729;DHT22;1372;47.956;7.830;2024-02-26T15:10:44;13.80;99.90
2729;DHT22;1372;47.956;7.830;2024-02-26T15:13:16;13.90;99.90
2729;DHT22;1372;47.956;7.830;2024-02-26T15:15:46;14.00;99.90
2729;DHT22;1372;47.956;7.830;2024-02-26T15:18:17;14.10;99.90
2729;DHT22;1372;47.956;7.830;2024-02-26T15:20:50;14.30;99.90
2729;DHT22;1372;47.956;7.830;2024-02-26T15:23:19;14.30;99.90
2729;DHT22;1372;47.956;7.830;2024-02-26T15:25:48;14.40;99.90
2729;DHT22;1372;47.956;7.830;2024-02-26T15:28:17;14.30;99.90
2729;DHT22;1372;47.956;7.830;2024-02-26T15:30:46;14.30;99.90
2729;DHT22;1372;47.956;7.830;2024-02-26T15:33:16;14.40;99.90
2729;DHT22;1372;47.956;7.830;2024-02-26T15:35:45;14.30;99.90
2729;DHT22;1372;47.956;7.830;2024-02-26T15:38:16;14.50;99.90
2729;DHT22;1372;47.956;7.830;2024-02-26T15:40:45;14.70;99.90
2729;DHT22;1372;47.956;7.830;2024-02-26T15:43:14;14.60;99.90
2729;DHT22;1372;47.956;7.830;2024-02-26T15:45:45;14.60;99.90
2729;DHT22;1372;47.956;7.830;2024-02-26T15:48:14;14.50;99.90
2729;DHT22;1372;47.956;7.830;2024-02-26T15:50:44;14.60;99.90
2729;DHT22;1372;47.956;7.830;2024-02-26T15:53:16;14.80;99.90
2729;DHT22;1372;47.956;7.830;2024-02-26T15:55:46;15.00;99.90
2729;DHT22;1372;47.956;7.830;2024-02-26T15:58:15;15.10;99.90
2729;DHT22;1372;47.956;7.830;2024-02-26T16:00:44;15.20;99.90
2729;DHT22;1372;47.956;7.830;2024-02-26T16:03:14;15.40;99.90
2729;DHT22;1372;47.956;7.830;2024-02-26T16:05:43;15.50;99.90
2729;DHT22;1372;47.956;7.830;2024-02-26T16:08:20;15.40;99.90
2729;DHT22;1372;47.956;7.830;2024-02-26T16:10:50;15.50;99.90
2729;DHT22;1372;47.956;7.830;2024-02-26T16:13:19;15.20;99.90
2729;DHT22;1372;47.956;7.830;2024-02-26T16:15:54;14.70;99.90
2729;DHT22;1372;47.956;7.830;2024-02-26T16:18:27;14.50;99.90
2729;DHT22;1372;47.956;7.830;2024-02-26T16:20:56;14.00;99.90
2729;DHT22;1372;47.956;7.830;2024-02-26T16:23:27;13.80;99.90
2729;DHT22;1372;47.956;7.830;2024-02-26T16:25:56;13.60;99.90
2729;DHT22;1372;47.956;7.830;2024-02-26T16:28:25;13.40;99.90
2729;DHT22;1372;47.956;7.830;2024-02-26T16:30:56;13.10;99.90
2729;DHT22;1372;47.956;7.830;2024-02-26T16:33:25;12.70;99.90